Time;durP1;ratioP1;P1;durP2;ratioP2;P2;SDS_P1;SDS_P2;PMS_P1;PMS_P2;Temp;Humidity;BMP_temperature;BMP_pressure;BME280_temperature;BME280_humidity;BME280_pressure;Samples;Min_cycle;Max_cycle;Signal;HPM_P1;HPM_P2
2022/09/06 00:00:44;;;;;;;7.63;5.07;;;10.60;99.90;;;;;;5133975;27;20218;-66
2022/09/06 00:03:11;;;;;;;10.03;5.20;;;10.50;99.90;;;;;;5132542;27;20230;-66
2022/09/06 00:05:40;;;;;;;9.07;5.20;;;10.40;99.90;;;;;;5133781;27;20241;-67
2022/09/06 00:08:07;;;;;;;8.60;5.17;;;10.30;99.90;;;;;;5133294;27;20203;-65
2022/09/06 00:10:34;;;;;;;9.13;5.00;;;10.20;99.90;;;;;;5132153;27;20289;-65
2022/09/06 00:13:03;;;;;;;9.40;4.50;;;10.10;99.90;;;;;;5132151;27;20607;-65
2022/09/06 00:15:30;;;;;;;8.97;4.40;;;10.10;99.90;;;;;;5133420;27;20234;-64
2022/09/06 00:17:59;;;;;;;8.13;4.87;;;10.10;99.90;;;;;;5128843;27;20204;-66
2022/09/06 00:20:26;;;;;;;8.83;4.50;;;10.00;99.90;;;;;;5132883;27;20209;-66
2022/09/06 00:22:58;;;;;;;7.73;4.90;;;10.00;99.90;;;;;;5132675;27;20199;-65
2022/09/06 00:25:26;;;;;;;8.17;4.73;;;9.90;99.90;;;;;;5133046;27;20282;-65
2022/09/06 00:27:57;;;;;;;7.13;4.20;;;9.80;99.90;;;;;;5128909;27;20252;-64
2022/09/06 00:30:24;;;;;;;6.50;4.10;;;9.70;99.90;;;;;;5128599;27;20705;-65
2022/09/06 00:32:51;;;;;;;7.57;4.10;;;9.70;99.90;;;;;;5132802;27;20210;-65
2022/09/06 00:35:18;;;;;;;5.53;3.77;;;9.70;99.90;;;;;;5133280;27;20636;-66
2022/09/06 00:37:46;;;;;;;6.77;3.40;;;9.80;99.90;;;;;;5133256;27;20230;-66
2022/09/06 00:40:14;;;;;;;7.07;4.20;;;9.80;99.90;;;;;;5132388;27;20229;-66
2022/09/06 00:42:41;;;;;;;5.43;3.87;;;9.80;99.90;;;;;;5133124;27;20230;-64
2022/09/06 00:45:11;;;;;;;6.80;3.87;;;9.80;99.90;;;;;;5132937;27;20241;-67
2022/09/06 00:47:41;;;;;;;7.83;4.00;;;9.80;99.90;;;;;;5133423;27;20234;-66
2022/09/06 00:50:12;;;;;;;6.33;3.80;;;9.80;99.90;;;;;;5132415;27;20311;-67
2022/09/06 00:52:39;;;;;;;5.40;3.50;;;9.80;99.90;;;;;;5132543;27;20238;-64
2022/09/06 00:55:07;;;;;;;6.50;3.90;;;9.80;99.90;;;;;;5133017;27;20674;-65
2022/09/06 00:57:36;;;;;;;5.00;3.50;;;9.80;99.90;;;;;;5132865;27;20244;-66
2022/09/06 01:00:05;;;;;;;5.77;3.50;;;9.80;99.90;;;;;;5131844;27;20235;-65
2022/09/06 01:02:32;;;;;;;7.60;4.13;;;9.80;99.90;;;;;;5112318;28;20227;-65
2022/09/06 01:05:00;;;;;;;7.07;4.03;;;9.70;99.90;;;;;;5111248;28;20209;-65
2022/09/06 01:07:41;;;;;;;4.67;3.50;;;9.70;99.90;;;;;;5111787;28;20203;-64
2022/09/06 01:10:23;;;;;;;5.93;3.77;;;9.70;99.90;;;;;;5113634;28;20226;-64
2022/09/06 01:13:01;;;;;;;7.63;3.97;;;9.70;99.90;;;;;;5131962;28;20314;-65
2022/09/06 01:15:35;;;;;;;6.13;3.90;;;9.60;99.90;;;;;;5132804;28;20289;-64
2022/09/06 01:18:14;;;;;;;6.03;3.70;;;9.60;99.90;;;;;;5132695;28;20237;-66
2022/09/06 01:21:14;;;;;;;6.23;3.70;;;9.60;99.90;;;;;;5131407;27;20245;-65
2022/09/06 01:24:13;;;;;;;5.30;3.70;;;9.40;99.90;;;;;;5128389;27;20245;-65
2022/09/06 01:27:05;;;;;;;7.73;4.27;;;9.30;99.90;;;;;;5132581;28;20219;-64
2022/09/06 01:29:39;;;;;;;5.90;3.70;;;9.30;99.90;;;;;;5132583;28;20234;-66
2022/09/06 01:32:13;;;;;;;6.30;3.67;;;9.20;99.90;;;;;;5126868;28;20191;-65
2022/09/06 01:34:44;;;;;;;6.37;4.00;;;9.10;99.90;;;;;;5131383;27;20230;-63
2022/09/06 01:37:14;;;;;;;5.60;4.10;;;8.90;99.90;;;;;;5136811;27;20191;-63
2022/09/06 01:39:42;;;;;;;8.73;3.93;;;8.80;99.90;;;;;;5136177;27;20226;-64
2022/09/06 01:42:13;;;;;;;5.23;3.67;;;8.80;99.90;;;;;;5135525;27;20309;-64
2022/09/06 01:44:44;;;;;;;7.37;3.90;;;8.70;99.90;;;;;;5136279;27;20229;-63
2022/09/06 01:47:28;;;;;;;5.70;3.50;;;8.70;99.90;;;;;;5136150;27;20274;-65
2022/09/06 01:50:16;;;;;;;6.53;3.90;;;8.60;99.90;;;;;;5136607;27;20713;-64
2022/09/06 01:52:53;;;;;;;9.40;3.90;;;8.60;99.90;;;;;;5132898;27;20210;-64
2022/09/06 01:55:28;;;;;;;6.47;3.90;;;8.60;99.90;;;;;;5134618;27;20253;-66
2022/09/06 01:58:22;;;;;;;8.50;3.77;;;8.50;99.90;;;;;;5136368;27;20228;-64
2022/09/06 02:00:57;;;;;;;4.83;3.47;;;8.50;99.90;;;;;;5128939;27;20237;-64
2022/09/06 02:03:29;;;;;;;6.50;3.63;;;8.60;99.90;;;;;;5135140;27;20539;-65
2022/09/06 02:06:03;;;;;;;5.70;3.70;;;8.50;99.90;;;;;;5135343;27;20222;-65
2022/09/06 02:08:33;;;;;;;5.40;3.17;;;8.50;99.90;;;;;;5135563;27;20286;-65
2022/09/06 02:11:03;;;;;;;5.47;3.37;;;8.50;99.90;;;;;;5136212;27;20222;-64
2022/09/06 02:13:33;;;;;;;6.60;3.80;;;8.40;99.90;;;;;;5134527;27;20252;-65
2022/09/06 02:16:03;;;;;;;6.27;3.53;;;8.40;99.90;;;;;;5135894;27;20245;-64
2022/09/06 02:18:35;;;;;;;4.93;3.40;;;8.40;99.90;;;;;;5135298;27;20223;-64
2022/09/06 02:21:04;;;;;;;5.63;3.43;;;8.40;99.90;;;;;;5135531;27;20187;-63
2022/09/06 02:23:35;;;;;;;9.20;3.80;;;8.40;99.90;;;;;;5131684;27;20298;-64
2022/09/06 02:26:06;;;;;;;6.30;4.23;;;8.40;99.90;;;;;;5135349;27;20274;-64
2022/09/06 02:28:34;;;;;;;7.03;4.03;;;8.40;99.90;;;;;;5134956;27;20226;-65
2022/09/06 02:31:06;;;;;;;7.20;4.00;;;8.30;99.90;;;;;;5135655;27;20616;-64
2022/09/06 02:33:34;;;;;;;6.93;4.30;;;8.30;99.90;;;;;;5134843;27;20199;-64
2022/09/06 02:36:06;;;;;;;6.60;4.30;;;8.20;99.90;;;;;;5135323;27;20301;-63
2022/09/06 02:38:35;;;;;;;8.50;4.33;;;8.20;99.90;;;;;;5135232;27;20214;-63
2022/09/06 02:41:03;;;;;;;7.50;4.23;;;8.20;99.90;;;;;;5135432;27;20225;-64
2022/09/06 02:43:30;;;;;;;6.80;4.13;;;8.20;99.90;;;;;;5133885;27;20233;-63
2022/09/06 02:45:57;;;;;;;7.43;4.23;;;8.20;99.90;;;;;;5134384;27;20298;-65
2022/09/06 02:48:25;;;;;;;7.47;5.27;;;8.10;99.90;;;;;;5134324;27;20253;-64
2022/09/06 02:50:52;;;;;;;8.30;5.20;;;8.10;99.90;;;;;;5135064;27;20290;-64
2022/09/06 02:53:19;;;;;;;8.70;4.93;;;8.00;99.90;;;;;;5134602;27;20325;-64
2022/09/06 02:55:47;;;;;;;9.50;4.83;;;8.00;99.90;;;;;;5134764;27;20267;-63
2022/09/06 02:58:15;;;;;;;9.93;4.97;;;8.00;99.90;;;;;;5135245;27;20202;-64
2022/09/06 03:00:42;;;;;;;7.77;4.97;;;8.00;99.90;;;;;;5133448;27;20233;-64
2022/09/06 03:03:09;;;;;;;7.63;5.23;;;8.00;99.90;;;;;;5135125;27;20223;-63
2022/09/06 03:05:38;;;;;;;7.50;5.33;;;8.00;99.90;;;;;;5134459;27;20206;-63
2022/09/06 03:08:05;;;;;;;10.80;6.20;;;8.00;99.90;;;;;;5134569;27;20217;-63
2022/09/06 03:10:31;;;;;;;9.60;6.23;;;8.00;99.90;;;;;;5132069;27;20631;-63
2022/09/06 03:12:58;;;;;;;11.80;7.00;;;8.00;99.90;;;;;;5134878;27;20659;-64
2022/09/06 03:15:25;;;;;;;12.27;6.90;;;8.00;99.90;;;;;;5134258;27;20214;-64
2022/09/06 03:17:56;;;;;;;13.80;7.67;;;8.00;99.90;;;;;;5134419;27;20238;-63
2022/09/06 03:20:23;;;;;;;15.87;8.60;;;7.90;99.90;;;;;;5133324;27;20294;-64
2022/09/06 03:22:51;;;;;;;15.73;9.03;;;7.90;99.90;;;;;;5134369;27;20318;-64
2022/09/06 03:25:18;;;;;;;17.37;9.17;;;7.90;99.90;;;;;;5121766;27;20235;-64
2022/09/06 03:27:45;;;;;;;15.60;8.67;;;7.80;99.90;;;;;;5124130;27;20314;-64
2022/09/06 03:30:12;;;;;;;16.43;9.10;;;7.80;99.90;;;;;;5125022;27;20218;-65
2022/09/06 03:32:39;;;;;;;16.33;8.93;;;7.80;99.90;;;;;;5124457;27;20607;-65
2022/09/06 03:35:06;;;;;;;18.63;9.53;;;7.80;99.90;;;;;;5122695;27;20299;-65
2022/09/06 03:37:33;;;;;;;18.50;9.77;;;7.80;99.90;;;;;;5125567;27;20202;-64
2022/09/06 03:40:02;;;;;;;21.83;10.40;;;7.80;99.90;;;;;;5124689;27;20231;-64
2022/09/06 03:42:29;;;;;;;20.97;10.33;;;7.90;99.90;;;;;;5113042;28;20274;-63
2022/09/06 03:44:56;;;;;;;17.57;10.50;;;7.90;99.90;;;;;;5130030;27;20198;-68
2022/09/06 03:47:23;;;;;;;17.97;9.90;;;7.90;99.90;;;;;;5124597;27;20203;-68
2022/09/06 03:49:50;;;;;;;17.40;9.60;;;7.90;99.90;;;;;;5113690;28;20260;-68
2022/09/06 03:52:17;;;;;;;16.80;8.63;;;8.00;99.90;;;;;;5132062;27;20290;-67
2022/09/06 03:54:44;;;;;;;18.57;9.40;;;8.00;99.90;;;;;;5132866;27;20207;-66
2022/09/06 03:57:12;;;;;;;26.47;10.83;;;8.10;99.90;;;;;;5134100;27;20639;-66
2022/09/06 03:59:39;;;;;;;23.07;10.87;;;8.10;99.90;;;;;;5133951;27;20258;-66
2022/09/06 04:02:06;;;;;;;19.60;11.10;;;8.00;99.90;;;;;;5133700;27;20307;-67
2022/09/06 04:04:33;;;;;;;24.00;11.57;;;8.10;99.90;;;;;;5132024;27;20199;-67
2022/09/06 04:07:00;;;;;;;19.67;10.77;;;8.10;99.90;;;;;;5133538;27;20289;-67
2022/09/06 04:09:27;;;;;;;22.07;11.77;;;8.10;99.90;;;;;;5133826;27;20253;-66
2022/09/06 04:11:54;;;;;;;22.57;12.00;;;8.00;99.90;;;;;;5133800;27;20252;-66
2022/09/06 04:14:22;;;;;;;25.10;13.10;;;8.00;99.90;;;;;;5130762;27;20285;-65
2022/09/06 04:16:49;;;;;;;26.27;13.33;;;7.90;99.90;;;;;;5133472;27;20335;-66
2022/09/06 04:19:16;;;;;;;22.50;13.37;;;7.90;99.90;;;;;;5133473;27;20289;-68
2022/09/06 04:21:43;;;;;;;27.13;14.63;;;7.90;99.90;;;;;;5133145;27;20242;-66
2022/09/06 04:24:09;;;;;;;30.90;13.90;;;7.90;99.90;;;;;;5133481;27;20206;-67
2022/09/06 04:26:36;;;;;;;29.47;14.33;;;7.90;99.90;;;;;;5129557;27;20230;-67
2022/09/06 04:29:03;;;;;;;27.83;15.13;;;7.90;99.90;;;;;;5133121;27;20230;-67
2022/09/06 04:31:32;;;;;;;29.40;14.53;;;8.00;99.90;;;;;;5129802;27;20556;-67
2022/09/06 04:33:58;;;;;;;31.70;14.93;;;8.00;99.90;;;;;;5133297;27;20295;-67
2022/09/06 04:36:25;;;;;;;29.67;16.70;;;8.00;99.90;;;;;;5132791;27;20654;-68
2022/09/06 04:38:53;;;;;;;35.53;17.17;;;8.00;99.90;;;;;;5130090;27;20689;-66
2022/09/06 04:41:20;;;;;;;34.43;17.00;;;8.00;99.90;;;;;;5133071;27;20203;-68
2022/09/06 04:43:47;;;;;;;37.27;18.50;;;8.00;99.90;;;;;;5132745;27;20218;-66
2022/09/06 04:46:20;;;;;;;31.33;17.57;;;8.00;99.90;;;;;;5133003;27;20245;-69
2022/09/06 04:48:49;;;;;;;32.70;17.60;;;7.90;99.90;;;;;;5132139;27;20680;-65
2022/09/06 04:51:16;;;;;;;32.27;17.20;;;8.00;99.90;;;;;;5132939;27;20638;-68
2022/09/06 04:53:43;;;;;;;32.07;17.63;;;8.10;99.90;;;;;;5132910;27;20285;-65
2022/09/06 04:56:14;;;;;;;33.07;17.07;;;8.10;99.90;;;;;;5132979;27;20565;-66
2022/09/06 04:58:42;;;;;;;33.23;17.77;;;8.10;99.90;;;;;;5133021;27;20240;-65
2022/09/06 05:01:08;;;;;;;29.97;16.33;;;8.20;99.90;;;;;;5131854;27;20206;-66
2022/09/06 05:03:35;;;;;;;29.47;16.97;;;8.20;99.90;;;;;;5132527;27;20261;-67
2022/09/06 05:06:09;;;;;;;34.43;16.70;;;8.30;99.90;;;;;;5132815;28;20249;-66
2022/09/06 05:08:37;;;;;;;30.10;16.17;;;8.40;99.90;;;;;;5133330;28;20280;-68
2022/09/06 05:11:05;;;;;;;31.63;16.60;;;8.40;99.90;;;;;;5135885;27;20211;-66
2022/09/06 05:13:32;;;;;;;27.97;16.03;;;8.50;99.90;;;;;;5135400;27;20800;-66
2022/09/06 05:16:01;;;;;;;33.13;17.17;;;8.60;99.90;;;;;;5137078;27;20625;-65
2022/09/06 05:18:28;;;;;;;32.73;16.20;;;8.70;99.90;;;;;;5137310;27;20662;-67
2022/09/06 05:20:56;;;;;;;27.40;14.27;;;8.80;99.90;;;;;;5137118;27;20229;-66
2022/09/06 05:23:24;;;;;;;29.43;15.13;;;8.90;99.90;;;;;;5136720;27;20222;-67
2022/09/06 05:25:51;;;;;;;32.37;14.50;;;9.00;99.90;;;;;;5137164;27;20203;-68
2022/09/06 05:28:18;;;;;;;27.80;14.70;;;9.10;99.90;;;;;;5135125;27;20266;-66
2022/09/06 05:30:45;;;;;;;23.33;13.53;;;9.20;99.90;;;;;;5134255;27;20286;-65
2022/09/06 05:33:14;;;;;;;24.87;13.37;;;9.30;99.90;;;;;;5127668;27;20295;-67
2022/09/06 05:35:41;;;;;;;28.07;12.57;;;9.40;99.90;;;;;;5132832;27;20574;-65
2022/09/06 05:38:08;;;;;;;21.23;12.07;;;9.50;99.90;;;;;;5126280;27;20289;-66
2022/09/06 05:40:36;;;;;;;24.30;12.27;;;9.70;99.90;;;;;;5125506;27;20282;-66
2022/09/06 05:43:03;;;;;;;21.93;10.90;;;9.80;99.90;;;;;;5122452;27;20251;-67
2022/09/06 05:45:30;;;;;;;24.17;10.67;;;9.90;99.90;;;;;;5115875;28;20290;-65
2022/09/06 05:47:57;;;;;;;20.33;10.50;;;10.00;99.90;;;;;;5124104;27;20226;-66
2022/09/06 05:50:23;;;;;;;20.03;9.87;;;10.20;99.90;;;;;;5136374;27;20709;-66
2022/09/06 05:52:53;;;;;;;19.40;9.60;;;10.30;99.90;;;;;;5136150;27;20290;-67
2022/09/06 05:55:20;;;;;;;17.67;8.43;;;10.40;99.90;;;;;;5134235;27;20306;-68
2022/09/06 05:57:48;;;;;;;15.13;7.57;;;10.50;99.90;;;;;;5134301;27;20202;-67
2022/09/06 06:00:15;;;;;;;13.87;6.97;;;10.60;99.90;;;;;;5135830;27;20223;-67
2022/09/06 06:02:45;;;;;;;12.27;5.27;;;10.70;99.90;;;;;;5136322;27;20262;-68
2022/09/06 06:05:12;;;;;;;11.67;5.60;;;10.80;99.90;;;;;;5136171;27;20306;-68
2022/09/06 06:07:38;;;;;;;10.40;5.90;;;10.80;99.90;;;;;;5135752;27;20237;-68
2022/09/06 06:10:06;;;;;;;9.20;5.20;;;10.80;99.90;;;;;;5134755;27;20290;-67
2022/09/06 06:12:33;;;;;;;10.97;6.33;;;10.90;99.90;;;;;;5135941;27;20294;-68
2022/09/06 06:15:01;;;;;;;15.30;6.43;;;10.90;99.90;;;;;;5135806;27;20298;-67
2022/09/06 06:17:28;;;;;;;16.00;6.73;;;11.00;99.90;;;;;;5135274;27;20260;-68
2022/09/06 06:19:55;;;;;;;12.53;6.60;;;11.00;99.90;;;;;;5135788;27;20294;-67
2022/09/06 06:22:22;;;;;;;12.00;6.57;;;11.10;99.90;;;;;;5133364;27;20565;-69
2022/09/06 06:24:48;;;;;;;14.57;6.63;;;11.20;99.90;;;;;;5136051;27;20303;-67
2022/09/06 06:27:15;;;;;;;13.03;6.50;;;11.30;99.90;;;;;;5135037;27;20202;-68
2022/09/06 06:29:42;;;;;;;11.87;6.17;;;11.50;99.90;;;;;;5124494;27;20253;-67
2022/09/06 06:32:11;;;;;;;13.73;6.63;;;11.60;99.90;;;;;;5128413;27;20227;-68
2022/09/06 06:34:38;;;;;;;13.10;6.43;;;11.70;99.90;;;;;;5126667;27;20608;-68
2022/09/06 06:37:04;;;;;;;10.87;6.07;;;11.70;99.90;;;;;;5132802;27;20203;-68
2022/09/06 06:39:31;;;;;;;17.43;7.87;;;11.80;99.90;;;;;;5126907;27;20230;-71
2022/09/06 06:41:58;;;;;;;15.23;6.63;;;11.90;99.90;;;;;;5131996;27;20262;-71
2022/09/06 06:44:26;;;;;;;13.07;6.60;;;12.10;99.90;;;;;;5135490;27;20309;-72
2022/09/06 06:46:53;;;;;;;13.57;5.87;;;12.20;99.90;;;;;;5135156;27;20207;-71
2022/09/06 06:49:21;;;;;;;9.33;5.43;;;12.30;99.90;;;;;;5136099;27;20263;-72
2022/09/06 06:51:48;;;;;;;11.43;5.40;;;12.40;99.90;;;;;;5133947;27;20571;-73
2022/09/06 06:54:15;;;;;;;9.27;4.67;;;12.50;99.90;;;;;;5135343;27;20293;-70
2022/09/06 06:56:43;;;;;;;8.47;4.00;;;12.60;99.90;;;;;;5133434;27;20234;-70
2022/09/06 06:59:10;;;;;;;10.07;4.60;;;12.60;99.90;;;;;;5129244;27;20722;-69
2022/09/06 07:01:37;;;;;;;7.07;4.40;;;12.70;99.90;;;;;;5135437;27;20289;-69
2022/09/06 07:04:05;;;;;;;6.73;3.73;;;12.70;99.90;;;;;;5133046;27;20261;-70
2022/09/06 07:06:46;;;;;;;7.83;4.00;;;12.80;99.90;;;;;;5134941;27;20556;-70
2022/09/06 07:09:14;;;;;;;7.33;3.50;;;12.90;99.90;;;;;;5133953;27;20279;-70
2022/09/06 07:11:40;;;;;;;6.63;3.53;;;12.90;99.90;;;;;;5135493;27;20601;-72
2022/09/06 07:14:07;;;;;;;6.63;3.93;;;13.10;99.90;;;;;;5135044;27;20603;-72
2022/09/06 07:16:34;;;;;;;5.20;2.90;;;13.10;99.90;;;;;;5129015;27;20195;-72
2022/09/06 07:19:01;;;;;;;4.80;3.10;;;13.20;99.90;;;;;;5130705;27;20294;-72
2022/09/06 07:21:28;;;;;;;6.00;3.80;;;13.30;99.90;;;;;;5134844;27;20249;-73
2022/09/06 07:23:56;;;;;;;3.30;2.60;;;13.30;99.90;;;;;;5130297;27;20305;-70
2022/09/06 07:26:25;;;;;;;4.27;2.73;;;13.30;99.90;;;;;;5134423;27;20222;-70
2022/09/06 07:28:52;;;;;;;3.97;2.20;;;13.30;99.90;;;;;;5134154;27;20257;-76
2022/09/06 07:31:20;;;;;;;5.23;3.00;;;13.30;99.90;;;;;;5134164;27;20281;-73
2022/09/06 07:33:47;;;;;;;5.97;3.37;;;13.30;99.90;;;;;;5132456;27;20226;-71
2022/09/06 07:36:14;;;;;;;3.60;2.40;;;13.20;99.90;;;;;;5129142;27;20288;-72
2022/09/06 07:38:42;;;;;;;4.77;2.83;;;13.20;99.90;;;;;;5126636;27;20294;-73
2022/09/06 07:41:11;;;;;;;5.53;3.30;;;13.20;99.90;;;;;;5132178;27;20283;-70
2022/09/06 07:43:37;;;;;;;7.20;4.20;;;13.30;99.90;;;;;;5131735;27;20246;-72
2022/09/06 07:46:07;;;;;;;6.83;3.90;;;13.30;99.90;;;;;;5132944;27;20603;-73
2022/09/06 07:48:35;;;;;;;6.70;4.10;;;13.30;99.90;;;;;;5132817;27;20226;-71
2022/09/06 07:51:06;;;;;;;7.67;4.23;;;13.40;99.90;;;;;;5132853;27;20569;-74
2022/09/06 07:53:34;;;;;;;8.53;4.70;;;13.40;99.90;;;;;;5131752;27;20237;-71
2022/09/06 07:56:02;;;;;;;9.27;5.27;;;13.40;99.90;;;;;;5128863;27;20984;-67
2022/09/06 07:58:31;;;;;;;9.93;4.50;;;13.40;99.90;;;;;;5132710;27;20628;-70
2022/09/06 08:01:16;;;;;;;9.57;5.27;;;13.60;99.90;;;;;;5130799;27;20572;-68
2022/09/06 08:03:43;;;;;;;10.73;5.63;;;13.60;99.90;;;;;;5130193;27;20242;-69
2022/09/06 08:06:10;;;;;;;7.37;4.70;;;13.80;99.90;;;;;;5132127;27;20262;-67
2022/09/06 08:08:37;;;;;;;11.37;4.90;;;13.80;99.90;;;;;;5131001;27;20240;-67
2022/09/06 08:11:06;;;;;;;7.93;4.23;;;13.90;99.90;;;;;;5139405;27;20604;-66
2022/09/06 08:13:34;;;;;;;8.60;3.90;;;13.80;99.90;;;;;;5131602;27;20585;-67
2022/09/06 08:16:01;;;;;;;8.40;4.10;;;13.90;99.90;;;;;;5129934;27;20662;-67
2022/09/06 08:18:29;;;;;;;7.50;4.40;;;13.80;99.90;;;;;;5133189;27;20249;-66
2022/09/06 08:20:56;;;;;;;8.57;4.50;;;13.70;99.90;;;;;;5133388;27;20569;-67
2022/09/06 08:23:22;;;;;;;7.70;3.90;;;13.60;99.90;;;;;;5133223;27;20249;-67
2022/09/06 08:25:58;;;;;;;6.90;3.80;;;13.60;99.90;;;;;;5131423;27;20290;-67
2022/09/06 08:28:26;;;;;;;6.10;3.20;;;13.50;99.90;;;;;;5128565;27;20229;-69
2022/09/06 08:30:54;;;;;;;4.57;3.17;;;13.60;99.90;;;;;;5130894;27;20257;-70
2022/09/06 08:33:24;;;;;;;7.53;3.60;;;13.70;99.90;;;;;;5130667;27;20288;-71
2022/09/06 08:35:55;;;;;;;7.20;3.73;;;13.80;99.60;;;;;;5131827;27;20209;-69
2022/09/06 08:38:22;;;;;;;4.90;3.50;;;13.90;99.10;;;;;;5132445;27;20195;-69
2022/09/06 08:40:50;;;;;;;5.03;2.80;;;14.00;99.50;;;;;;5131729;27;20255;-68
2022/09/06 08:43:19;;;;;;;4.07;2.50;;;14.10;98.00;;;;;;5132991;27;20640;-68
2022/09/06 08:45:49;;;;;;;4.90;3.20;;;14.00;97.10;;;;;;5132025;27;20220;-67
2022/09/06 08:48:18;;;;;;;6.40;3.93;;;14.10;98.20;;;;;;5133143;27;20257;-65
2022/09/06 08:50:54;;;;;;;4.80;3.13;;;14.10;98.30;;;;;;5132578;27;20207;-67
2022/09/06 08:53:21;;;;;;;6.13;3.20;;;14.10;97.60;;;;;;5133123;27;20221;-65
2022/09/06 08:55:55;;;;;;;4.20;2.80;;;14.10;97.80;;;;;;5129796;27;20607;-67
2022/09/06 08:58:39;;;;;;;6.23;3.30;;;14.20;97.80;;;;;;5131612;27;20286;-65
2022/09/06 09:01:11;;;;;;;5.27;3.10;;;14.30;97.90;;;;;;5131961;27;20238;-67
2022/09/06 09:03:42;;;;;;;5.87;3.50;;;14.40;98.10;;;;;;5131485;28;20289;-67
2022/09/06 09:06:09;;;;;;;6.80;3.40;;;14.50;97.90;;;;;;5131015;28;20275;-67
2022/09/06 09:08:45;;;;;;;3.43;2.50;;;14.70;97.70;;;;;;5131651;28;20249;-66
2022/09/06 09:11:17;;;;;;;5.30;2.87;;;14.80;96.40;;;;;;5130583;28;20194;-71
2022/09/06 09:13:53;;;;;;;5.10;2.40;;;14.70;96.50;;;;;;5126184;28;20187;-71
2022/09/06 09:16:20;;;;;;;3.40;2.40;;;14.70;96.50;;;;;;5131405;28;20194;-69
2022/09/06 09:18:51;;;;;;;5.03;2.30;;;14.70;96.60;;;;;;5130400;28;20293;-69
2022/09/06 09:21:21;;;;;;;3.63;2.10;;;14.80;96.10;;;;;;5130266;28;20202;-68
2022/09/06 09:23:53;;;;;;;3.60;2.37;;;14.80;96.30;;;;;;5128860;28;20660;-67
2022/09/06 09:26:21;;;;;;;3.93;2.43;;;14.80;96.30;;;;;;5131076;28;20222;-67
2022/09/06 09:29:06;;;;;;;3.47;2.37;;;14.80;96.30;;;;;;5130876;28;20241;-69
2022/09/06 09:31:35;;;;;;;4.70;2.67;;;14.80;96.60;;;;;;5128654;28;20230;-68
2022/09/06 09:34:04;;;;;;;4.80;2.90;;;14.70;96.90;;;;;;5129780;28;20230;-69
2022/09/06 09:36:31;;;;;;;5.17;3.20;;;14.70;96.90;;;;;;5127086;28;20210;-69
2022/09/06 09:38:59;;;;;;;4.30;3.00;;;14.70;96.70;;;;;;5123973;28;20230;-67
2022/09/06 09:41:29;;;;;;;4.93;3.23;;;14.70;96.90;;;;;;5131217;28;20293;-67
2022/09/06 09:43:58;;;;;;;7.77;3.37;;;14.80;97.00;;;;;;5129602;27;20673;-68
2022/09/06 09:46:31;;;;;;;4.50;3.23;;;14.80;96.90;;;;;;5132425;28;20203;-74
2022/09/06 09:49:09;;;;;;;7.33;3.60;;;14.80;96.10;;;;;;5132725;28;20238;-68
2022/09/06 09:51:38;;;;;;;9.17;4.50;;;14.80;95.90;;;;;;5132287;28;20222;-68
2022/09/06 09:54:07;;;;;;;7.33;4.23;;;14.80;95.70;;;;;;5132185;28;20203;-68
2022/09/06 09:56:42;;;;;;;7.73;4.30;;;14.90;95.60;;;;;;5133965;27;20256;-68
2022/09/06 09:59:18;;;;;;;7.13;4.10;;;14.80;95.20;;;;;;5136119;27;20187;-68
2022/09/06 10:01:45;;;;;;;9.50;4.13;;;14.90;95.10;;;;;;5140830;27;20551;-70
2022/09/06 10:04:19;;;;;;;8.20;5.17;;;15.00;95.00;;;;;;5136274;27;20258;-71
2022/09/06 10:06:47;;;;;;;8.37;4.63;;;15.00;95.20;;;;;;5135898;27;20254;-70
2022/09/06 10:09:30;;;;;;;7.17;4.67;;;15.00;95.30;;;;;;5135987;27;20289;-67
2022/09/06 10:11:58;;;;;;;12.17;5.57;;;15.10;95.20;;;;;;5136345;27;20186;-68
2022/09/06 10:14:28;;;;;;;9.30;5.23;;;15.20;95.00;;;;;;5135129;27;20300;-69
2022/09/06 10:16:56;;;;;;;16.20;9.57;;;15.20;95.20;;;;;;5119425;27;20673;-68
2022/09/06 10:19:39;;;;;;;18.00;10.67;;;15.30;95.10;;;;;;5119672;27;20194;-68
2022/09/06 10:22:29;;;;;;;22.17;12.10;;;15.30;95.00;;;;;;5136040;27;20191;-74
2022/09/06 10:25:39;;;;;;;20.83;11.60;;;15.30;95.10;;;;;;5124909;27;20232;-69
2022/09/06 10:28:31;;;;;;;26.70;13.57;;;15.30;95.10;;;;;;5114904;28;20270;-69
2022/09/06 10:31:25;;;;;;;38.37;18.03;;;15.40;95.30;;;;;;5104405;27;20210;-69
2022/09/06 10:34:37;;;;;;;35.10;18.73;;;15.50;95.20;;;;;;5135638;27;20612;-70
2022/09/06 10:37:19;;;;;;;29.00;15.43;;;15.60;95.40;;;;;;5096398;27;20282;-67
2022/09/06 10:39:50;;;;;;;28.20;15.60;;;15.60;95.00;;;;;;5131523;27;20682;-67
2022/09/06 10:42:29;;;;;;;37.03;20.20;;;15.70;95.10;;;;;;5135570;27;20627;-66
2022/09/06 10:45:31;;;;;;;64.20;31.83;;;15.90;94.80;;;;;;5129379;27;20217;-68
2022/09/06 10:48:07;;;;;;;62.83;31.67;;;15.90;94.30;;;;;;5123533;27;20202;-67
2022/09/06 10:50:42;;;;;;;59.23;31.13;;;16.00;93.50;;;;;;5132504;27;20230;-68
2022/09/06 10:53:16;;;;;;;53.83;30.97;;;15.80;93.50;;;;;;5134256;27;20201;-69
2022/09/06 10:55:48;;;;;;;58.70;30.87;;;15.70;93.70;;;;;;5132014;27;20217;-69
2022/09/06 10:58:28;;;;;;;70.13;36.70;;;15.70;93.60;;;;;;5134602;27;20234;-68
2022/09/06 11:00:55;;;;;;;96.53;47.83;;;15.60;94.10;;;;;;5131213;27;20545;-68
2022/09/06 11:03:29;;;;;;;110.53;51.10;;;15.50;94.50;;;;;;5128052;27;20238;-66
2022/09/06 11:06:02;;;;;;;99.40;50.73;;;15.40;94.90;;;;;;5133541;27;20313;-67
2022/09/06 11:08:37;;;;;;;92.87;47.53;;;15.40;94.80;;;;;;5116771;27;20612;-67
2022/09/06 11:11:11;;;;;;;94.63;48.40;;;15.30;94.50;;;;;;5130704;27;20286;-68
2022/09/06 11:13:38;;;;;;;111.77;55.67;;;15.30;95.00;;;;;;5129891;27;20198;-68
2022/09/06 11:16:09;;;;;;;131.07;62.00;;;15.20;95.70;;;;;;5134056;27;20250;-70
2022/09/06 11:18:43;;;;;;;135.00;65.03;;;15.10;95.80;;;;;;5134555;27;20290;-67
2022/09/06 11:21:37;;;;;;;146.57;70.97;;;15.00;96.00;;;;;;5135433;27;20670;-70
2022/09/06 11:24:12;;;;;;;142.30;67.60;;;15.00;96.00;;;;;;5134653;27;20233;-67
2022/09/06 11:26:49;;;;;;;140.63;68.53;;;14.90;96.10;;;;;;5134759;27;20226;-67
2022/09/06 11:29:22;;;;;;;129.37;60.83;;;14.90;96.20;;;;;;5134421;27;20327;-67
2022/09/06 11:31:53;;;;;;;131.33;61.53;;;15.00;96.10;;;;;;5135277;27;20242;-67
2022/09/06 11:34:23;;;;;;;105.13;51.20;;;15.00;96.60;;;;;;5134740;27;20215;-68
2022/09/06 11:36:51;;;;;;;109.63;51.17;;;15.00;96.30;;;;;;5134884;27;20236;-68
2022/09/06 11:39:33;;;;;;;109.43;53.27;;;14.90;96.60;;;;;;5134660;27;20218;-69
2022/09/06 11:42:00;;;;;;;119.90;57.70;;;15.00;96.80;;;;;;5134841;27;20580;-68
2022/09/06 11:44:53;;;;;;;118.70;58.13;;;14.90;96.70;;;;;;5134480;27;20294;-67
2022/09/06 11:47:37;;;;;;;103.53;50.00;;;15.00;96.90;;;;;;5134892;27;20630;-67
2022/09/06 11:50:33;;;;;;;84.43;43.07;;;15.00;96.80;;;;;;5134462;27;20658;-69
2022/09/06 11:53:14;;;;;;;70.13;36.03;;;14.90;96.80;;;;;;5134114;27;20256;-68
2022/09/06 11:55:44;;;;;;;63.73;33.33;;;14.80;96.10;;;;;;5134980;27;20191;-67
2022/09/06 11:58:22;;;;;;;54.67;29.87;;;14.80;95.70;;;;;;5134282;27;20601;-66
2022/09/06 12:01:28;;;;;;;59.20;28.77;;;14.90;95.40;;;;;;5134509;27;20218;-67
2022/09/06 12:04:03;;;;;;;57.27;27.47;;;14.90;95.60;;;;;;5118211;27;20666;-67
2022/09/06 12:06:32;;;;;;;57.47;30.97;;;15.00;95.80;;;;;;5133044;27;20274;-67
2022/09/06 12:08:59;;;;;;;63.53;32.23;;;15.00;95.80;;;;;;5130713;27;20710;-67
2022/09/06 12:11:34;;;;;;;49.23;26.80;;;15.10;96.10;;;;;;5124099;27;20725;-68
2022/09/06 12:14:04;;;;;;;51.63;24.83;;;15.20;95.70;;;;;;5118640;27;20190;-66
2022/09/06 12:17:08;;;;;;;45.87;22.63;;;15.10;96.00;;;;;;5121046;27;20269;-67
2022/09/06 12:19:45;;;;;;;47.87;23.57;;;15.00;96.30;;;;;;5124579;27;20201;-67
2022/09/06 12:22:51;;;;;;;43.40;21.53;;;15.10;96.20;;;;;;5133863;27;20267;-67
2022/09/06 12:25:20;;;;;;;45.07;22.17;;;15.00;96.40;;;;;;5132857;27;20207;-67
2022/09/06 12:27:56;;;;;;;32.70;16.47;;;15.10;96.60;;;;;;5133167;27;20591;-69
2022/09/06 12:30:36;;;;;;;26.80;13.77;;;15.10;95.50;;;;;;5133440;27;20234;-68
2022/09/06 12:33:07;;;;;;;50.63;26.53;;;15.10;95.70;;;;;;5133299;27;20204;-68
2022/09/06 12:35:34;;;;;;;50.97;26.00;;;15.20;95.60;;;;;;5113105;28;20187;-70
2022/09/06 12:38:03;;;;;;;51.50;25.77;;;15.10;95.80;;;;;;5112640;28;20293;-70
2022/09/06 12:40:33;;;;;;;60.23;32.03;;;15.10;96.10;;;;;;5112848;28;20207;-68
2022/09/06 12:43:04;;;;;;;57.80;27.77;;;15.10;95.80;;;;;;5124600;27;20195;-67
2022/09/06 12:45:31;;;;;;;33.10;18.00;;;15.10;95.00;;;;;;5133318;27;20298;-68
2022/09/06 12:48:07;;;;;;;41.07;20.30;;;15.20;93.30;;;;;;5133237;27;20670;-70
2022/09/06 12:50:34;;;;;;;41.40;21.70;;;15.20;93.90;;;;;;5133162;27;20603;-71
2022/09/06 12:53:03;;;;;;;41.50;22.80;;;15.30;94.40;;;;;;5132773;27;20210;-68
2022/09/06 12:55:32;;;;;;;47.80;24.93;;;15.30;94.90;;;;;;5133425;27;20238;-70
2022/09/06 12:58:02;;;;;;;47.90;25.53;;;15.20;94.90;;;;;;5133288;27;20376;-72
2022/09/06 13:00:34;;;;;;;47.53;23.50;;;15.20;95.10;;;;;;5133299;27;20194;-69